AAL3037 KDFW-KRIC
Flight info
| Callsign | AAL3037 |
|---|---|
| Flight time | N/A |
| Altitude | 37000 |
| Route | TRYTN4 LOOSE MEM TROVE METWO Q66 ALEAN PSK LYH POWTN5 |
| Aircraft | A321/M-SDE3FGHIRWY/LB1 |
Departure
| Time | 2026-05-08 00:33 |
|---|---|
| Airport | Dallas Fort Worth International Airport (KDFW) |
Arrival
| Time | N/A |
|---|---|
| Airport | Richmond International Airport (KRIC) |
| Time | Latitude | Longitude | Altitude | Speed | Heading |
|---|---|---|---|---|---|
| 2026-05-08 00:13 | 32.90177 | -97.03789 | 583 ft | 0 kts | 348° |
| 2026-05-08 00:23 | 32.90156 | -97.03784 | 583 ft | 4 kts | 348° |
| 2026-05-08 00:23 | 32.90129 | -97.03777 | 583 ft | 4 kts | 348° |
| 2026-05-08 00:23 | 32.90103 | -97.03771 | 583 ft | 4 kts | 348° |
| 2026-05-08 00:24 | 32.90097 | -97.03769 | 583 ft | 0 kts | 348° |
| 2026-05-08 00:26 | 32.90099 | -97.03769 | 583 ft | 1 kts | 358° |
| 2026-05-08 00:26 | 32.90121 | -97.03737 | 582 ft | 8 kts | 75° |
| 2026-05-08 00:26 | 32.90118 | -97.03660 | 581 ft | 10 kts | 93° |
| 2026-05-08 00:27 | 32.90114 | -97.03568 | 578 ft | 12 kts | 93° |
| 2026-05-08 00:27 | 32.90110 | -97.03460 | 575 ft | 14 kts | 90° |
| 2026-05-08 00:27 | 32.90111 | -97.03344 | 574 ft | 14 kts | 90° |
| 2026-05-08 00:27 | 32.90114 | -97.03229 | 574 ft | 14 kts | 72° |
| 2026-05-08 00:28 | 32.90210 | -97.03192 | 571 ft | 18 kts | 358° |
| 2026-05-08 00:28 | 32.90341 | -97.03191 | 573 ft | 20 kts | 360° |
| 2026-05-08 00:28 | 32.90484 | -97.03191 | 574 ft | 20 kts | 0° |
| 2026-05-08 00:28 | 32.90623 | -97.03190 | 575 ft | 20 kts | 0° |
| 2026-05-08 00:29 | 32.90771 | -97.03190 | 575 ft | 21 kts | 0° |
| 2026-05-08 00:29 | 32.90909 | -97.03189 | 580 ft | 19 kts | 0° |
| 2026-05-08 00:29 | 32.91034 | -97.03187 | 578 ft | 18 kts | 0° |
| 2026-05-08 00:29 | 32.91151 | -97.03187 | 581 ft | 16 kts | 360° |
| 2026-05-08 00:30 | 32.91250 | -97.03187 | 580 ft | 13 kts | 0° |
| 2026-05-08 00:30 | 32.91337 | -97.03186 | 582 ft | 12 kts | 0° |
| 2026-05-08 00:30 | 32.91427 | -97.03186 | 581 ft | 14 kts | 0° |
| 2026-05-08 00:30 | 32.91518 | -97.03186 | 582 ft | 9 kts | 0° |
| 2026-05-08 00:31 | 32.91557 | -97.03156 | 577 ft | 6 kts | 70° |
| 2026-05-08 00:31 | 32.91559 | -97.03113 | 579 ft | 4 kts | 91° |
| 2026-05-08 00:31 | 32.91559 | -97.03058 | 576 ft | 9 kts | 90° |
| 2026-05-08 00:31 | 32.91544 | -97.02999 | 584 ft | 6 kts | 142° |
| 2026-05-08 00:32 | 32.91508 | -97.02991 | 580 ft | 5 kts | 180° |
| 2026-05-08 00:32 | 32.91392 | -97.02991 | 577 ft | 49 kts | 180° |
| 2026-05-08 00:32 | 32.90741 | -97.02993 | 578 ft | 134 kts | 180° |
| 2026-05-08 00:32 | 32.89603 | -97.03003 | 592 ft | 193 kts | 180° |
| 2026-05-08 00:33 | 32.88250 | -97.03019 | 1546 ft | 188 kts | 179° |
| 2026-05-08 00:33 | 32.86923 | -97.03023 | 2441 ft | 191 kts | 178° |
| 2026-05-08 00:33 | 32.85592 | -97.02968 | 2899 ft | 196 kts | 175° |
| 2026-05-08 00:33 | 32.84213 | -97.02741 | 3261 ft | 203 kts | 162° |
| 2026-05-08 00:34 | 32.82930 | -97.02021 | 3716 ft | 206 kts | 152° |
| 2026-05-08 00:34 | 32.81626 | -97.01212 | 4018 ft | 216 kts | 153° |
| 2026-05-08 00:34 | 32.80253 | -97.00395 | 4311 ft | 227 kts | 153° |
| 2026-05-08 00:34 | 32.78811 | -96.99420 | 4525 ft | 251 kts | 140° |
| 2026-05-08 00:35 | 32.77726 | -96.97710 | 4887 ft | 269 kts | 112° |
| 2026-05-08 00:35 | 32.77018 | -96.95614 | 5496 ft | 277 kts | 111° |
| 2026-05-08 00:35 | 32.76533 | -96.93374 | 6140 ft | 286 kts | 94° |
| 2026-05-08 00:35 | 32.76597 | -96.90981 | 6761 ft | 293 kts | 88° |
| 2026-05-08 00:36 | 32.76698 | -96.88540 | 7394 ft | 298 kts | 88° |
| 2026-05-08 00:36 | 32.76790 | -96.86058 | 8063 ft | 303 kts | 89° |
| 2026-05-08 00:36 | 32.76909 | -96.83575 | 8698 ft | 308 kts | 83° |
| 2026-05-08 00:36 | 32.77413 | -96.81081 | 9333 ft | 314 kts | 73° |
| 2026-05-08 00:37 | 32.78063 | -96.78583 | 9983 ft | 318 kts | 73° |
| 2026-05-08 00:37 | 32.78736 | -96.76013 | 10257 ft | 337 kts | 72° |
| 2026-05-08 00:37 | 32.79450 | -96.73272 | 10380 ft | 358 kts | 72° |
| 2026-05-08 00:38 | 32.80954 | -96.67470 | 11308 ft | 373 kts | 72° |
| 2026-05-08 00:38 | 32.81718 | -96.64503 | 11896 ft | 377 kts | 72° |
| 2026-05-08 00:38 | 32.82471 | -96.61576 | 12470 ft | 381 kts | 72° |
| 2026-05-08 00:38 | 32.83252 | -96.58546 | 13066 ft | 385 kts | 71° |
| 2026-05-08 00:39 | 32.84042 | -96.55487 | 13653 ft | 389 kts | 71° |
| 2026-05-08 00:39 | 32.84839 | -96.52394 | 14199 ft | 393 kts | 71° |
| 2026-05-08 00:39 | 32.85644 | -96.49267 | 14708 ft | 397 kts | 71° |
| 2026-05-08 00:39 | 32.86457 | -96.46106 | 15223 ft | 402 kts | 72° |
| 2026-05-08 00:40 | 32.87277 | -96.42915 | 15723 ft | 406 kts | 72° |
| 2026-05-08 00:40 | 32.88104 | -96.39685 | 16217 ft | 410 kts | 72° |
| 2026-05-08 00:40 | 32.88939 | -96.36418 | 16712 ft | 414 kts | 72° |
| 2026-05-08 00:40 | 32.89784 | -96.33126 | 17179 ft | 419 kts | 71° |
| 2026-05-08 00:41 | 32.90729 | -96.29828 | 17654 ft | 423 kts | 69° |
| 2026-05-08 00:41 | 32.91774 | -96.26549 | 18121 ft | 426 kts | 67° |
| 2026-05-08 00:41 | 32.92885 | -96.23252 | 18552 ft | 431 kts | 66° |
| 2026-05-08 00:41 | 32.94016 | -96.19940 | 18938 ft | 434 kts | 66° |
| 2026-05-08 00:42 | 32.95149 | -96.16585 | 19324 ft | 438 kts | 66° |
| 2026-05-08 00:42 | 32.96276 | -96.13193 | 19716 ft | 442 kts | 66° |
| 2026-05-08 00:42 | 32.97396 | -96.09770 | 20089 ft | 445 kts | 67° |
| 2026-05-08 00:42 | 32.98513 | -96.06312 | 20458 ft | 449 kts | 67° |
| 2026-05-08 00:43 | 32.99632 | -96.02829 | 20811 ft | 452 kts | 66° |
| 2026-05-08 00:43 | 33.00743 | -95.99361 | 21155 ft | 455 kts | 66° |
| 2026-05-08 00:43 | 33.01888 | -95.95779 | 21506 ft | 459 kts | 66° |
| 2026-05-08 00:43 | 33.03013 | -95.92263 | 21846 ft | 462 kts | 66° |
| 2026-05-08 00:44 | 33.04163 | -95.88676 | 22180 ft | 465 kts | 66° |
| 2026-05-08 00:44 | 33.05320 | -95.85067 | 22515 ft | 468 kts | 66° |
| 2026-05-08 00:44 | 33.06488 | -95.81431 | 22854 ft | 471 kts | 66° |
| 2026-05-08 00:44 | 33.07659 | -95.77784 | 23194 ft | 474 kts | 66° |
| 2026-05-08 00:45 | 33.08840 | -95.74100 | 23545 ft | 477 kts | 65° |
| 2026-05-08 00:45 | 33.10042 | -95.70349 | 23847 ft | 480 kts | 66° |
| 2026-05-08 00:45 | 33.11237 | -95.66621 | 24127 ft | 482 kts | 66° |
| 2026-05-08 00:45 | 33.12423 | -95.62923 | 24400 ft | 485 kts | 66° |
| 2026-05-08 00:46 | 33.13652 | -95.59098 | 24690 ft | 488 kts | 66° |
| 2026-05-08 00:46 | 33.14848 | -95.55362 | 24966 ft | 491 kts | 66° |
| 2026-05-08 00:46 | 33.16064 | -95.51546 | 25239 ft | 494 kts | 66° |
| 2026-05-08 00:46 | 33.17283 | -95.47698 | 25512 ft | 497 kts | 67° |
| 2026-05-08 00:47 | 33.18505 | -95.43833 | 25785 ft | 499 kts | 67° |
| 2026-05-08 00:47 | 33.19736 | -95.39942 | 26061 ft | 502 kts | 67° |